Terminal Aerodrome Forecast
Issued by NWS Birmingham, AL

Home | Current Version | Previous Version | Text Only | Print | Product List | Glossary On
Versions: 1 2 3 4 5 6 7 8 9 10 11 12 13 14 15 16 17 18 19 20 21 22
000
FTUS44 KBMX 221700
TAFBHM
TAF
KBHM 221733Z 2218/2318 11006KT P6SM VCTS SCT020CB BKN035
      TEMPO 2219/2223 4SM SHRA BKN015
     FM230100 03002KT P6SM OVC100
     FM231000 06002KT 4SM BR BKN012
     FM231500 25005KT P6SM SCT015 BKN030=

USA.gov is the U.S. government's official web portal to all federal, state and local government web resources and services.